sensor_id;sensor_type;location;lat;lon;timestamp;P1;durP1;ratioP1;P2;durP2;ratioP2
31095;SDS011;17749;51.962;8.560;2024-02-28T06:01:56;66.72;;;23.25;;
31095;SDS011;17749;51.962;8.560;2024-02-28T06:04:23;61.95;;;23.88;;
31095;SDS011;17749;51.962;8.560;2024-02-28T06:06:51;63.00;;;23.45;;
31095;SDS011;17749;51.962;8.560;2024-02-28T06:09:18;59.70;;;24.08;;
31095;SDS011;17749;51.962;8.560;2024-02-28T06:11:46;58.90;;;22.45;;
31095;SDS011;17749;51.962;8.560;2024-02-28T06:14:13;65.13;;;22.65;;
31095;SDS011;17749;51.962;8.560;2024-02-28T06:16:41;75.25;;;26.02;;
31095;SDS011;17749;51.962;8.560;2024-02-28T06:19:08;73.85;;;26.90;;
31095;SDS011;17749;51.962;8.560;2024-02-28T06:21:36;65.88;;;24.98;;
31095;SDS011;17749;51.962;8.560;2024-02-28T06:24:03;71.95;;;25.92;;
31095;SDS011;17749;51.962;8.560;2024-02-28T06:26:31;80.00;;;30.88;;
31095;SDS011;17749;51.962;8.560;2024-02-28T06:28:58;65.32;;;26.95;;
31095;SDS011;17749;51.962;8.560;2024-02-28T06:31:28;76.07;;;28.45;;
31095;SDS011;17749;51.962;8.560;2024-02-28T06:33:58;68.57;;;24.33;;
31095;SDS011;17749;51.962;8.560;2024-02-28T06:36:25;64.18;;;23.48;;
31095;SDS011;17749;51.962;8.560;2024-02-28T06:39:01;72.05;;;24.52;;
31095;SDS011;17749;51.962;8.560;2024-02-28T06:41:29;62.03;;;24.00;;
31095;SDS011;17749;51.962;8.560;2024-02-28T06:43:56;73.15;;;25.17;;
31095;SDS011;17749;51.962;8.560;2024-02-28T06:46:24;71.88;;;24.92;;
31095;SDS011;17749;51.962;8.560;2024-02-28T06:48:51;66.47;;;24.92;;
31095;SDS011;17749;51.962;8.560;2024-02-28T06:51:19;74.85;;;24.92;;
31095;SDS011;17749;51.962;8.560;2024-02-28T06:53:46;77.57;;;25.17;;
31095;SDS011;17749;51.962;8.560;2024-02-28T06:56:14;85.75;;;25.75;;
31095;SDS011;17749;51.962;8.560;2024-02-28T06:58:42;67.32;;;24.15;;
31095;SDS011;17749;51.962;8.560;2024-02-28T07:01:26;82.57;;;28.33;;
31095;SDS011;17749;51.962;8.560;2024-02-28T07:03:54;82.68;;;26.27;;
31095;SDS011;17749;51.962;8.560;2024-02-28T07:06:23;94.68;;;28.38;;
31095;SDS011;17749;51.962;8.560;2024-02-28T07:08:50;87.28;;;29.58;;
31095;SDS011;17749;51.962;8.560;2024-02-28T07:11:17;82.80;;;26.48;;
31095;SDS011;17749;51.962;8.560;2024-02-28T07:13:44;80.30;;;26.85;;
31095;SDS011;17749;51.962;8.560;2024-02-28T07:16:11;79.80;;;23.67;;
31095;SDS011;17749;51.962;8.560;2024-02-28T07:18:41;91.72;;;25.10;;
31095;SDS011;17749;51.962;8.560;2024-02-28T07:21:11;77.20;;;25.15;;
31095;SDS011;17749;51.962;8.560;2024-02-28T07:23:42;75.80;;;24.40;;
31095;SDS011;17749;51.962;8.560;2024-02-28T07:26:14;68.03;;;24.23;;
31095;SDS011;17749;51.962;8.560;2024-02-28T07:28:53;79.07;;;25.70;;
31095;SDS011;17749;51.962;8.560;2024-02-28T07:31:20;83.53;;;26.48;;
31095;SDS011;17749;51.962;8.560;2024-02-28T07:33:47;85.68;;;24.73;;
31095;SDS011;17749;51.962;8.560;2024-02-28T07:36:15;96.35;;;26.20;;
31095;SDS011;17749;51.962;8.560;2024-02-28T07:38:42;84.47;;;25.63;;
31095;SDS011;17749;51.962;8.560;2024-02-28T07:41:09;88.13;;;26.73;;
31095;SDS011;17749;51.962;8.560;2024-02-28T07:43:36;83.53;;;26.80;;
31095;SDS011;17749;51.962;8.560;2024-02-28T07:46:09;91.00;;;25.77;;
31095;SDS011;17749;51.962;8.560;2024-02-28T07:48:38;76.07;;;24.15;;
31095;SDS011;17749;51.962;8.560;2024-02-28T07:51:07;79.65;;;26.15;;
31095;SDS011;17749;51.962;8.560;2024-02-28T07:53:53;89.18;;;25.95;;
31095;SDS011;17749;51.962;8.560;2024-02-28T07:56:25;76.68;;;25.48;;
31095;SDS011;17749;51.962;8.560;2024-02-28T07:59:06;82.45;;;26.00;;
31095;SDS011;17749;51.962;8.560;2024-02-28T08:01:51;90.38;;;25.73;;
31095;SDS011;17749;51.962;8.560;2024-02-28T08:04:22;85.78;;;28.15;;
31095;SDS011;17749;51.962;8.560;2024-02-28T08:07:04;89.38;;;28.23;;
31095;SDS011;17749;51.962;8.560;2024-02-28T08:09:33;86.07;;;25.20;;
31095;SDS011;17749;51.962;8.560;2024-02-28T08:12:00;76.43;;;25.92;;
31095;SDS011;17749;51.962;8.560;2024-02-28T08:14:39;93.05;;;27.13;;
31095;SDS011;17749;51.962;8.560;2024-02-28T08:17:06;69.07;;;24.63;;
31095;SDS011;17749;51.962;8.560;2024-02-28T08:19:36;93.22;;;27.05;;
31095;SDS011;17749;51.962;8.560;2024-02-28T08:22:07;88.40;;;27.00;;
31095;SDS011;17749;51.962;8.560;2024-02-28T08:24:37;85.30;;;27.45;;
31095;SDS011;17749;51.962;8.560;2024-02-28T08:27:12;79.88;;;27.33;;
31095;SDS011;17749;51.962;8.560;2024-02-28T08:29:49;79.78;;;26.15;;
31095;SDS011;17749;51.962;8.560;2024-02-28T08:32:21;92.10;;;28.95;;
31095;SDS011;17749;51.962;8.560;2024-02-28T08:35:02;89.32;;;28.08;;
31095;SDS011;17749;51.962;8.560;2024-02-28T08:37:30;83.00;;;28.25;;
31095;SDS011;17749;51.962;8.560;2024-02-28T08:39:58;82.03;;;28.42;;
31095;SDS011;17749;51.962;8.560;2024-02-28T08:42:28;83.88;;;26.10;;
31095;SDS011;17749;51.962;8.560;2024-02-28T08:44:55;98.75;;;29.65;;
31095;SDS011;17749;51.962;8.560;2024-02-28T08:47:23;97.07;;;29.42;;
31095;SDS011;17749;51.962;8.560;2024-02-28T08:50:06;96.55;;;29.02;;
31095;SDS011;17749;51.962;8.560;2024-02-28T08:52:33;93.90;;;28.10;;
31095;SDS011;17749;51.962;8.560;2024-02-28T08:55:16;89.55;;;29.20;;
31095;SDS011;17749;51.962;8.560;2024-02-28T09:00:13;88.93;;;26.45;;
31095;SDS011;17749;51.962;8.560;2024-02-28T09:02:44;101.72;;;28.48;;
31095;SDS011;17749;51.962;8.560;2024-02-28T09:05:23;86.55;;;29.05;;
31095;SDS011;17749;51.962;8.560;2024-02-28T09:07:50;92.80;;;29.17;;
31095;SDS011;17749;51.962;8.560;2024-02-28T09:10:22;89.65;;;29.15;;
31095;SDS011;17749;51.962;8.560;2024-02-28T09:12:52;91.35;;;29.27;;
31095;SDS011;17749;51.962;8.560;2024-02-28T09:15:20;99.43;;;30.42;;
31095;SDS011;17749;51.962;8.560;2024-02-28T09:17:47;97.28;;;29.73;;
31095;SDS011;17749;51.962;8.560;2024-02-28T09:20:14;85.85;;;28.40;;
31095;SDS011;17749;51.962;8.560;2024-02-28T09:22:42;91.78;;;27.55;;
31095;SDS011;17749;51.962;8.560;2024-02-28T09:25:09;95.78;;;29.67;;
31095;SDS011;17749;51.962;8.560;2024-02-28T09:27:36;108.50;;;34.60;;
31095;SDS011;17749;51.962;8.560;2024-02-28T09:30:04;90.95;;;30.67;;
31095;SDS011;17749;51.962;8.560;2024-02-28T09:32:32;101.10;;;30.40;;
31095;SDS011;17749;51.962;8.560;2024-02-28T09:34:59;93.70;;;29.48;;
31095;SDS011;17749;51.962;8.560;2024-02-28T09:37:26;81.75;;;29.63;;
31095;SDS011;17749;51.962;8.560;2024-02-28T09:39:55;97.90;;;31.10;;
31095;SDS011;17749;51.962;8.560;2024-02-28T09:42:22;104.07;;;31.17;;
31095;SDS011;17749;51.962;8.560;2024-02-28T09:44:49;98.60;;;30.42;;
31095;SDS011;17749;51.962;8.560;2024-02-28T09:47:16;93.78;;;31.50;;
31095;SDS011;17749;51.962;8.560;2024-02-28T09:49:44;92.60;;;32.80;;
31095;SDS011;17749;51.962;8.560;2024-02-28T09:52:17;102.15;;;30.52;;
31095;SDS011;17749;51.962;8.560;2024-02-28T09:54:44;87.75;;;30.70;;
31095;SDS011;17749;51.962;8.560;2024-02-28T09:57:11;104.03;;;33.90;;
31095;SDS011;17749;51.962;8.560;2024-02-28T09:59:39;99.20;;;32.83;;
31095;SDS011;17749;51.962;8.560;2024-02-28T10:02:22;92.65;;;30.55;;
31095;SDS011;17749;51.962;8.560;2024-02-28T10:04:51;101.85;;;31.58;;
31095;SDS011;17749;51.962;8.560;2024-02-28T10:07:25;96.55;;;31.40;;
31095;SDS011;17749;51.962;8.560;2024-02-28T10:10:07;104.75;;;32.45;;
31095;SDS011;17749;51.962;8.560;2024-02-28T10:13:04;110.70;;;32.55;;
31095;SDS011;17749;51.962;8.560;2024-02-28T10:15:31;114.80;;;36.30;;
31095;SDS011;17749;51.962;8.560;2024-02-28T10:17:58;113.97;;;35.78;;
31095;SDS011;17749;51.962;8.560;2024-02-28T10:20:25;114.20;;;35.78;;
31095;SDS011;17749;51.962;8.560;2024-02-28T10:22:52;126.20;;;38.63;;
31095;SDS011;17749;51.962;8.560;2024-02-28T10:25:19;126.38;;;36.00;;
31095;SDS011;17749;51.962;8.560;2024-02-28T10:27:48;103.70;;;34.00;;
31095;SDS011;17749;51.962;8.560;2024-02-28T10:30:15;117.85;;;34.38;;
31095;SDS011;17749;51.962;8.560;2024-02-28T10:32:49;118.72;;;35.08;;
31095;SDS011;17749;51.962;8.560;2024-02-28T10:35:17;116.00;;;38.28;;
31095;SDS011;17749;51.962;8.560;2024-02-28T10:37:46;110.63;;;37.10;;
31095;SDS011;17749;51.962;8.560;2024-02-28T10:40:16;119.55;;;37.40;;
31095;SDS011;17749;51.962;8.560;2024-02-28T10:42:44;120.90;;;35.35;;
31095;SDS011;17749;51.962;8.560;2024-02-28T10:45:12;115.35;;;35.30;;
31095;SDS011;17749;51.962;8.560;2024-02-28T10:47:56;117.13;;;37.85;;
31095;SDS011;17749;51.962;8.560;2024-02-28T10:50:23;120.05;;;37.58;;
31095;SDS011;17749;51.962;8.560;2024-02-28T10:52:50;121.40;;;36.90;;
31095;SDS011;17749;51.962;8.560;2024-02-28T10:55:21;120.57;;;39.88;;
31095;SDS011;17749;51.962;8.560;2024-02-28T10:57:58;124.53;;;39.38;;
31095;SDS011;17749;51.962;8.560;2024-02-28T11:00:34;117.40;;;37.65;;
31095;SDS011;17749;51.962;8.560;2024-02-28T11:03:02;125.07;;;38.63;;
31095;SDS011;17749;51.962;8.560;2024-02-28T11:05:36;143.27;;;42.10;;
31095;SDS011;17749;51.962;8.560;2024-02-28T11:08:08;147.77;;;42.72;;
31095;SDS011;17749;51.962;8.560;2024-02-28T11:10:40;159.15;;;49.63;;
31095;SDS011;17749;51.962;8.560;2024-02-28T11:13:09;146.02;;;45.78;;
31095;SDS011;17749;51.962;8.560;2024-02-28T11:15:37;133.93;;;40.20;;
31095;SDS011;17749;51.962;8.560;2024-02-28T11:18:08;128.10;;;38.00;;
31095;SDS011;17749;51.962;8.560;2024-02-28T11:20:36;135.30;;;40.72;;
31095;SDS011;17749;51.962;8.560;2024-02-28T11:23:05;133.07;;;41.97;;
31095;SDS011;17749;51.962;8.560;2024-02-28T11:25:33;122.60;;;38.60;;
31095;SDS011;17749;51.962;8.560;2024-02-28T11:28:00;114.78;;;36.67;;
31095;SDS011;17749;51.962;8.560;2024-02-28T11:30:27;106.88;;;34.60;;
31095;SDS011;17749;51.962;8.560;2024-02-28T11:32:54;113.28;;;33.50;;
31095;SDS011;17749;51.962;8.560;2024-02-28T11:35:27;112.57;;;34.58;;
31095;SDS011;17749;51.962;8.560;2024-02-28T11:37:55;101.43;;;32.40;;
31095;SDS011;17749;51.962;8.560;2024-02-28T11:40:25;104.82;;;31.17;;
31095;SDS011;17749;51.962;8.560;2024-02-28T11:42:52;86.28;;;29.27;;
31095;SDS011;17749;51.962;8.560;2024-02-28T11:45:19;96.68;;;31.73;;
31095;SDS011;17749;51.962;8.560;2024-02-28T11:47:47;89.20;;;29.33;;
31095;SDS011;17749;51.962;8.560;2024-02-28T11:50:14;86.10;;;28.60;;
31095;SDS011;17749;51.962;8.560;2024-02-28T11:52:45;89.25;;;27.45;;
31095;SDS011;17749;51.962;8.560;2024-02-28T11:55:12;98.90;;;28.88;;
31095;SDS011;17749;51.962;8.560;2024-02-28T11:57:39;89.93;;;28.80;;
31095;SDS011;17749;51.962;8.560;2024-02-28T12:00:07;101.47;;;29.98;;
31095;SDS011;17749;51.962;8.560;2024-02-28T12:02:35;110.18;;;33.03;;
31095;SDS011;17749;51.962;8.560;2024-02-28T12:05:03;93.43;;;31.48;;
31095;SDS011;17749;51.962;8.560;2024-02-28T12:07:31;106.53;;;32.25;;
31095;SDS011;17749;51.962;8.560;2024-02-28T12:09:59;93.72;;;29.02;;
31095;SDS011;17749;51.962;8.560;2024-02-28T12:12:29;96.93;;;29.15;;
31095;SDS011;17749;51.962;8.560;2024-02-28T12:15:06;87.78;;;29.83;;
31095;SDS011;17749;51.962;8.560;2024-02-28T12:17:33;95.03;;;30.83;;
31095;SDS011;17749;51.962;8.560;2024-02-28T12:20:02;98.72;;;33.15;;
31095;SDS011;17749;51.962;8.560;2024-02-28T12:22:29;91.40;;;30.70;;
31095;SDS011;17749;51.962;8.560;2024-02-28T12:24:56;97.03;;;30.33;;
31095;SDS011;17749;51.962;8.560;2024-02-28T12:27:24;101.72;;;32.15;;
31095;SDS011;17749;51.962;8.560;2024-02-28T12:29:51;101.35;;;32.67;;
31095;SDS011;17749;51.962;8.560;2024-02-28T12:32:18;101.82;;;32.65;;
31095;SDS011;17749;51.962;8.560;2024-02-28T12:34:45;88.05;;;30.17;;
31095;SDS011;17749;51.962;8.560;2024-02-28T12:37:12;97.63;;;33.85;;
31095;SDS011;17749;51.962;8.560;2024-02-28T12:39:39;97.28;;;31.13;;
31095;SDS011;17749;51.962;8.560;2024-02-28T12:42:06;94.32;;;32.67;;
31095;SDS011;17749;51.962;8.560;2024-02-28T12:44:34;101.55;;;34.20;;
31095;SDS011;17749;51.962;8.560;2024-02-28T12:47:01;95.38;;;33.40;;
31095;SDS011;17749;51.962;8.560;2024-02-28T12:49:28;99.07;;;36.15;;
31095;SDS011;17749;51.962;8.560;2024-02-28T12:51:55;100.22;;;36.85;;
31095;SDS011;17749;51.962;8.560;2024-02-28T12:54:22;83.82;;;32.63;;
31095;SDS011;17749;51.962;8.560;2024-02-28T12:56:49;88.07;;;31.58;;
31095;SDS011;17749;51.962;8.560;2024-02-28T12:59:16;101.25;;;33.20;;
31095;SDS011;17749;51.962;8.560;2024-02-28T13:01:43;98.18;;;35.08;;
31095;SDS011;17749;51.962;8.560;2024-02-28T13:04:10;95.05;;;33.58;;
31095;SDS011;17749;51.962;8.560;2024-02-28T13:06:37;95.13;;;32.33;;
31095;SDS011;17749;51.962;8.560;2024-02-28T13:09:05;87.10;;;31.40;;
31095;SDS011;17749;51.962;8.560;2024-02-28T13:11:39;82.10;;;29.73;;
31095;SDS011;17749;51.962;8.560;2024-02-28T13:14:06;81.85;;;31.58;;
31095;SDS011;17749;51.962;8.560;2024-02-28T13:16:35;86.97;;;31.33;;
31095;SDS011;17749;51.962;8.560;2024-02-28T13:19:02;84.22;;;32.00;;
31095;SDS011;17749;51.962;8.560;2024-02-28T13:21:31;83.95;;;29.88;;
31095;SDS011;17749;51.962;8.560;2024-02-28T13:24:01;85.38;;;31.05;;
31095;SDS011;17749;51.962;8.560;2024-02-28T13:26:29;88.38;;;30.98;;
31095;SDS011;17749;51.962;8.560;2024-02-28T13:28:56;84.72;;;29.20;;
31095;SDS011;17749;51.962;8.560;2024-02-28T13:31:23;86.78;;;28.80;;
31095;SDS011;17749;51.962;8.560;2024-02-28T13:33:50;76.75;;;30.73;;
31095;SDS011;17749;51.962;8.560;2024-02-28T13:36:18;72.60;;;27.85;;
31095;SDS011;17749;51.962;8.560;2024-02-28T13:38:44;72.72;;;27.38;;
31095;SDS011;17749;51.962;8.560;2024-02-28T13:41:11;77.45;;;29.88;;
31095;SDS011;17749;51.962;8.560;2024-02-28T13:43:38;76.22;;;27.98;;
31095;SDS011;17749;51.962;8.560;2024-02-28T13:46:06;73.57;;;27.38;;
31095;SDS011;17749;51.962;8.560;2024-02-28T13:48:33;78.85;;;28.42;;
31095;SDS011;17749;51.962;8.560;2024-02-28T13:51:00;78.63;;;30.02;;
31095;SDS011;17749;51.962;8.560;2024-02-28T13:53:28;71.50;;;26.25;;
31095;SDS011;17749;51.962;8.560;2024-02-28T13:55:55;77.20;;;27.05;;
31095;SDS011;17749;51.962;8.560;2024-02-28T13:58:22;73.45;;;28.38;;
31095;SDS011;17749;51.962;8.560;2024-02-28T14:00:49;71.93;;;28.17;;
31095;SDS011;17749;51.962;8.560;2024-02-28T14:03:17;66.95;;;26.85;;
31095;SDS011;17749;51.962;8.560;2024-02-28T14:05:44;70.35;;;27.27;;
31095;SDS011;17749;51.962;8.560;2024-02-28T14:08:11;59.55;;;23.45;;
31095;SDS011;17749;51.962;8.560;2024-02-28T14:10:39;65.70;;;25.13;;
31095;SDS011;17749;51.962;8.560;2024-02-28T14:13:06;59.40;;;24.75;;
31095;SDS011;17749;51.962;8.560;2024-02-28T14:15:34;54.55;;;22.73;;
31095;SDS011;17749;51.962;8.560;2024-02-28T14:18:03;53.53;;;22.35;;
31095;SDS011;17749;51.962;8.560;2024-02-28T14:20:30;59.40;;;23.77;;
31095;SDS011;17749;51.962;8.560;2024-02-28T14:22:57;59.80;;;23.17;;
31095;SDS011;17749;51.962;8.560;2024-02-28T14:25:25;55.90;;;23.42;;
31095;SDS011;17749;51.962;8.560;2024-02-28T14:27:52;56.63;;;23.08;;
31095;SDS011;17749;51.962;8.560;2024-02-28T14:30:19;58.38;;;24.38;;
31095;SDS011;17749;51.962;8.560;2024-02-28T14:32:47;54.55;;;23.88;;
31095;SDS011;17749;51.962;8.560;2024-02-28T14:35:15;61.47;;;24.10;;
31095;SDS011;17749;51.962;8.560;2024-02-28T14:37:42;59.45;;;23.60;;
31095;SDS011;17749;51.962;8.560;2024-02-28T14:40:10;53.08;;;23.90;;
31095;SDS011;17749;51.962;8.560;2024-02-28T14:42:41;59.22;;;25.25;;
31095;SDS011;17749;51.962;8.560;2024-02-28T14:45:10;60.85;;;26.15;;
31095;SDS011;17749;51.962;8.560;2024-02-28T14:47:38;55.63;;;23.65;;
31095;SDS011;17749;51.962;8.560;2024-02-28T14:50:06;54.22;;;21.45;;
31095;SDS011;17749;51.962;8.560;2024-02-28T14:52:37;57.05;;;23.67;;
31095;SDS011;17749;51.962;8.560;2024-02-28T14:55:05;54.15;;;23.05;;
31095;SDS011;17749;51.962;8.560;2024-02-28T14:57:34;53.05;;;23.42;;
31095;SDS011;17749;51.962;8.560;2024-02-28T15:00:07;59.08;;;25.27;;
31095;SDS011;17749;51.962;8.560;2024-02-28T15:02:34;55.95;;;24.02;;
31095;SDS011;17749;51.962;8.560;2024-02-28T15:05:02;59.30;;;24.48;;
31095;SDS011;17749;51.962;8.560;2024-02-28T15:07:32;56.85;;;23.65;;
31095;SDS011;17749;51.962;8.560;2024-02-28T15:10:05;61.70;;;24.25;;
31095;SDS011;17749;51.962;8.560;2024-02-28T15:12:34;63.33;;;25.90;;
31095;SDS011;17749;51.962;8.560;2024-02-28T15:15:02;61.17;;;24.33;;
31095;SDS011;17749;51.962;8.560;2024-02-28T15:17:31;56.60;;;22.83;;
31095;SDS011;17749;51.962;8.560;2024-02-28T15:19:59;58.22;;;23.40;;
31095;SDS011;17749;51.962;8.560;2024-02-28T15:22:29;54.55;;;22.35;;
31095;SDS011;17749;51.962;8.560;2024-02-28T15:24:56;58.58;;;24.90;;
31095;SDS011;17749;51.962;8.560;2024-02-28T15:27:23;54.65;;;22.95;;
31095;SDS011;17749;51.962;8.560;2024-02-28T15:29:51;59.50;;;22.45;;
31095;SDS011;17749;51.962;8.560;2024-02-28T15:32:18;55.22;;;23.30;;
31095;SDS011;17749;51.962;8.560;2024-02-28T15:34:45;55.58;;;24.10;;
31095;SDS011;17749;51.962;8.560;2024-02-28T15:37:11;58.53;;;22.92;;
31095;SDS011;17749;51.962;8.560;2024-02-28T15:39:38;50.42;;;21.55;;
31095;SDS011;17749;51.962;8.560;2024-02-28T15:42:07;53.63;;;23.30;;
31095;SDS011;17749;51.962;8.560;2024-02-28T15:44:34;51.90;;;22.77;;
31095;SDS011;17749;51.962;8.560;2024-02-28T15:47:01;56.05;;;23.70;;
31095;SDS011;17749;51.962;8.560;2024-02-28T15:49:29;66.18;;;24.70;;
31095;SDS011;17749;51.962;8.560;2024-02-28T15:52:10;59.42;;;24.58;;
31095;SDS011;17749;51.962;8.560;2024-02-28T15:54:37;59.00;;;23.15;;
31095;SDS011;17749;51.962;8.560;2024-02-28T15:57:07;51.67;;;23.20;;
31095;SDS011;17749;51.962;8.560;2024-02-28T15:59:35;60.25;;;23.42;;
31095;SDS011;17749;51.962;8.560;2024-02-28T16:02:04;54.95;;;23.70;;
31095;SDS011;17749;51.962;8.560;2024-02-28T16:04:32;50.63;;;22.65;;
31095;SDS011;17749;51.962;8.560;2024-02-28T16:07:01;58.13;;;23.83;;
31095;SDS011;17749;51.962;8.560;2024-02-28T16:09:29;53.20;;;22.65;;
31095;SDS011;17749;51.962;8.560;2024-02-28T16:11:56;53.85;;;23.00;;
31095;SDS011;17749;51.962;8.560;2024-02-28T16:14:23;55.25;;;23.33;;
31095;SDS011;17749;51.962;8.560;2024-02-28T16:16:50;55.05;;;22.75;;
31095;SDS011;17749;51.962;8.560;2024-02-28T16:19:17;52.72;;;23.83;;
31095;SDS011;17749;51.962;8.560;2024-02-28T16:21:53;54.95;;;23.55;;
31095;SDS011;17749;51.962;8.560;2024-02-28T16:24:21;59.40;;;23.20;;
31095;SDS011;17749;51.962;8.560;2024-02-28T16:26:48;59.72;;;24.33;;
31095;SDS011;17749;51.962;8.560;2024-02-28T16:29:15;58.22;;;25.33;;
31095;SDS011;17749;51.962;8.560;2024-02-28T16:31:42;63.25;;;25.60;;
31095;SDS011;17749;51.962;8.560;2024-02-28T16:34:16;56.88;;;24.60;;
31095;SDS011;17749;51.962;8.560;2024-02-28T16:36:49;59.95;;;25.38;;
31095;SDS011;17749;51.962;8.560;2024-02-28T16:39:16;60.15;;;25.95;;
31095;SDS011;17749;51.962;8.560;2024-02-28T16:41:48;57.83;;;25.25;;
31095;SDS011;17749;51.962;8.560;2024-02-28T16:44:21;58.70;;;24.63;;
31095;SDS011;17749;51.962;8.560;2024-02-28T16:46:48;59.75;;;23.98;;
31095;SDS011;17749;51.962;8.560;2024-02-28T16:49:15;54.30;;;23.95;;
31095;SDS011;17749;51.962;8.560;2024-02-28T16:51:49;57.40;;;24.40;;
31095;SDS011;17749;51.962;8.560;2024-02-28T16:54:16;63.58;;;26.35;;
31095;SDS011;17749;51.962;8.560;2024-02-28T16:56:45;62.45;;;26.88;;
31095;SDS011;17749;51.962;8.560;2024-02-28T16:59:12;64.32;;;25.80;;
31095;SDS011;17749;51.962;8.560;2024-02-28T17:01:39;56.50;;;25.45;;
31095;SDS011;17749;51.962;8.560;2024-02-28T17:04:06;60.92;;;24.95;;
31095;SDS011;17749;51.962;8.560;2024-02-28T17:06:34;58.42;;;25.15;;
31095;SDS011;17749;51.962;8.560;2024-02-28T17:09:01;65.97;;;26.88;;
31095;SDS011;17749;51.962;8.560;2024-02-28T17:11:28;61.67;;;27.38;;
31095;SDS011;17749;51.962;8.560;2024-02-28T17:13:55;63.17;;;26.20;;
31095;SDS011;17749;51.962;8.560;2024-02-28T17:16:22;68.47;;;27.35;;
31095;SDS011;17749;51.962;8.560;2024-02-28T17:18:49;65.53;;;27.05;;
31095;SDS011;17749;51.962;8.560;2024-02-28T17:21:16;64.85;;;25.75;;
31095;SDS011;17749;51.962;8.560;2024-02-28T17:23:43;68.80;;;29.77;;
31095;SDS011;17749;51.962;8.560;2024-02-28T17:26:10;71.88;;;30.58;;
31095;SDS011;17749;51.962;8.560;2024-02-28T17:28:38;60.35;;;27.35;;
31095;SDS011;17749;51.962;8.560;2024-02-28T17:31:05;65.00;;;26.88;;
31095;SDS011;17749;51.962;8.560;2024-02-28T17:33:32;62.80;;;27.27;;
31095;SDS011;17749;51.962;8.560;2024-02-28T17:35:59;56.58;;;26.08;;
31095;SDS011;17749;51.962;8.560;2024-02-28T17:38:26;69.50;;;27.67;;
31095;SDS011;17749;51.962;8.560;2024-02-28T17:40:53;74.13;;;30.80;;
31095;SDS011;17749;51.962;8.560;2024-02-28T17:43:20;81.32;;;30.80;;
31095;SDS011;17749;51.962;8.560;2024-02-28T17:45:46;78.43;;;32.97;;
31095;SDS011;17749;51.962;8.560;2024-02-28T17:48:13;80.30;;;32.35;;
31095;SDS011;17749;51.962;8.560;2024-02-28T17:50:42;69.95;;;27.75;;
31095;SDS011;17749;51.962;8.560;2024-02-28T17:53:09;75.10;;;31.08;;
31095;SDS011;17749;51.962;8.560;2024-02-28T17:55:36;69.57;;;31.45;;
31095;SDS011;17749;51.962;8.560;2024-02-28T17:58:03;60.53;;;25.17;;
31095;SDS011;17749;51.962;8.560;2024-02-28T18:00:30;72.03;;;33.33;;
31095;SDS011;17749;51.962;8.560;2024-02-28T18:02:57;65.32;;;28.38;;
31095;SDS011;17749;51.962;8.560;2024-02-28T18:05:24;64.57;;;26.58;;
31095;SDS011;17749;51.962;8.560;2024-02-28T18:07:53;65.63;;;28.27;;
31095;SDS011;17749;51.962;8.560;2024-02-28T18:10:22;67.77;;;29.23;;
31095;SDS011;17749;51.962;8.560;2024-02-28T18:12:49;78.93;;;31.50;;
31095;SDS011;17749;51.962;8.560;2024-02-28T18:15:17;99.18;;;37.08;;
31095;SDS011;17749;51.962;8.560;2024-02-28T18:17:44;86.65;;;34.13;;
31095;SDS011;17749;51.962;8.560;2024-02-28T18:20:11;80.47;;;31.65;;
31095;SDS011;17749;51.962;8.560;2024-02-28T18:22:38;70.10;;;28.20;;
31095;SDS011;17749;51.962;8.560;2024-02-28T18:25:05;79.65;;;29.73;;
31095;SDS011;17749;51.962;8.560;2024-02-28T18:27:33;64.63;;;28.20;;
31095;SDS011;17749;51.962;8.560;2024-02-28T18:30:01;68.25;;;29.45;;
31095;SDS011;17749;51.962;8.560;2024-02-28T18:32:28;70.68;;;29.88;;
31095;SDS011;17749;51.962;8.560;2024-02-28T18:34:57;72.15;;;29.35;;
31095;SDS011;17749;51.962;8.560;2024-02-28T18:37:26;75.07;;;29.83;;
31095;SDS011;17749;51.962;8.560;2024-02-28T18:39:55;80.03;;;31.83;;
31095;SDS011;17749;51.962;8.560;2024-02-28T18:42:22;64.47;;;26.55;;
31095;SDS011;17749;51.962;8.560;2024-02-28T18:44:54;63.10;;;26.98;;
31095;SDS011;17749;51.962;8.560;2024-02-28T18:47:22;67.85;;;28.23;;
31095;SDS011;17749;51.962;8.560;2024-02-28T18:49:51;58.08;;;26.30;;
31095;SDS011;17749;51.962;8.560;2024-02-28T18:52:18;62.20;;;26.60;;
31095;SDS011;17749;51.962;8.560;2024-02-28T18:54:45;57.15;;;26.55;;
31095;SDS011;17749;51.962;8.560;2024-02-28T18:57:12;59.95;;;25.77;;
31095;SDS011;17749;51.962;8.560;2024-02-28T18:59:39;70.07;;;29.55;;
31095;SDS011;17749;51.962;8.560;2024-02-28T19:02:06;64.75;;;27.20;;
31095;SDS011;17749;51.962;8.560;2024-02-28T19:04:34;64.82;;;30.55;;
31095;SDS011;17749;51.962;8.560;2024-02-28T19:07:02;68.57;;;31.60;;
31095;SDS011;17749;51.962;8.560;2024-02-28T19:09:29;85.15;;;34.47;;
31095;SDS011;17749;51.962;8.560;2024-02-28T19:11:56;70.45;;;31.52;;
31095;SDS011;17749;51.962;8.560;2024-02-28T19:14:23;72.13;;;29.35;;
31095;SDS011;17749;51.962;8.560;2024-02-28T19:16:52;65.32;;;27.50;;
31095;SDS011;17749;51.962;8.560;2024-02-28T19:19:19;64.97;;;28.38;;
31095;SDS011;17749;51.962;8.560;2024-02-28T19:21:46;67.70;;;28.33;;
31095;SDS011;17749;51.962;8.560;2024-02-28T19:24:16;59.72;;;26.10;;
31095;SDS011;17749;51.962;8.560;2024-02-28T19:26:43;69.25;;;29.52;;
31095;SDS011;17749;51.962;8.560;2024-02-28T19:29:10;73.63;;;34.17;;
31095;SDS011;17749;51.962;8.560;2024-02-28T19:31:38;67.40;;;30.13;;
31095;SDS011;17749;51.962;8.560;2024-02-28T19:34:05;70.53;;;29.88;;
31095;SDS011;17749;51.962;8.560;2024-02-28T19:36:33;70.63;;;29.35;;
31095;SDS011;17749;51.962;8.560;2024-02-28T19:39:00;72.80;;;30.58;;
31095;SDS011;17749;51.962;8.560;2024-02-28T19:41:30;68.32;;;28.33;;
31095;SDS011;17749;51.962;8.560;2024-02-28T19:43:58;63.00;;;26.73;;
31095;SDS011;17749;51.962;8.560;2024-02-28T19:46:26;64.53;;;27.58;;
31095;SDS011;17749;51.962;8.560;2024-02-28T19:48:53;85.50;;;33.85;;
31095;SDS011;17749;51.962;8.560;2024-02-28T19:51:20;101.18;;;43.50;;
31095;SDS011;17749;51.962;8.560;2024-02-28T19:53:48;93.00;;;41.28;;
31095;SDS011;17749;51.962;8.560;2024-02-28T19:56:15;95.80;;;46.45;;
31095;SDS011;17749;51.962;8.560;2024-02-28T19:58:42;79.18;;;35.13;;
31095;SDS011;17749;51.962;8.560;2024-02-28T20:01:14;84.20;;;37.33;;
31095;SDS011;17749;51.962;8.560;2024-02-28T20:03:42;81.95;;;34.33;;
31095;SDS011;17749;51.962;8.560;2024-02-28T20:06:08;80.63;;;33.67;;
31095;SDS011;17749;51.962;8.560;2024-02-28T20:08:36;86.20;;;34.53;;
31095;SDS011;17749;51.962;8.560;2024-02-28T20:11:03;79.45;;;32.38;;
31095;SDS011;17749;51.962;8.560;2024-02-28T20:13:31;81.18;;;31.98;;
31095;SDS011;17749;51.962;8.560;2024-02-28T20:15:59;71.15;;;30.40;;
31095;SDS011;17749;51.962;8.560;2024-02-28T20:18:26;71.93;;;27.88;;
31095;SDS011;17749;51.962;8.560;2024-02-28T20:20:53;79.50;;;29.08;;
31095;SDS011;17749;51.962;8.560;2024-02-28T20:23:20;71.80;;;30.95;;
31095;SDS011;17749;51.962;8.560;2024-02-28T20:25:47;78.90;;;30.42;;
31095;SDS011;17749;51.962;8.560;2024-02-28T20:28:16;72.38;;;29.65;;
31095;SDS011;17749;51.962;8.560;2024-02-28T20:30:49;67.82;;;28.55;;